Terminal Aerodrome Forecast
Issued by NWS Paducah, KY

Home | Current Version | Previous Version | Text Only | Print | Product List | Glossary On
Versions: 1 2 3 4 5 6 7 8 9 10 11 12 13 14 15 16 17 18 19
000
FTUS43 KPAH 021720
TAFPAH
TAF
KPAH 021720Z 0218/0318 24008KT P6SM VCTS SCT035CB BKN080
     FM030000 VRB03KT P6SM VCSH SCT035 BKN060
     FM030600 34003KT 4SM BR SCT007 BKN015
     FM031400 31005KT P6SM BKN020=

USA.gov is the U.S. government's official web portal to all federal, state and local government web resources and services.